Aviation Digital Data Service (ADDS)

Output produced by TAFs form (1906 UTC 01 September 2014)
found at http://www.aviationweather.gov/adds/tafs/
 
KGFL 011736Z 0118/0218 20006KT P6SM SCT045 
     FM020000 VRB03KT P6SM SKC 
     FM020200 VRB03KT 3SM BR SCT250 
     FM020400 00000KT 1SM BR BKN002 
     FM020600 00000KT 1/2SM FG VV002 
     FM021300 20005KT 6SM BR SCT002 BKN025